createdAt,value
2018-09-26T00:00:02.548Z,2.76
2018-09-26T00:02:33.161Z,2.84
2018-09-26T00:05:02.294Z,2.98
2018-09-26T00:07:31.410Z,2.90
2018-09-26T00:10:00.733Z,2.99
2018-09-26T00:12:29.917Z,2.87
2018-09-26T00:14:59.094Z,2.82
2018-09-26T00:17:28.295Z,2.83
2018-09-26T00:19:57.453Z,2.82
2018-09-26T00:22:26.659Z,2.90
2018-09-26T00:24:55.839Z,2.79
2018-09-26T00:27:24.962Z,2.76
2018-09-26T00:29:54.101Z,2.51
2018-09-26T00:32:23.214Z,2.37
2018-09-26T00:34:52.354Z,2.40
2018-09-26T00:37:21.560Z,2.44
2018-09-26T00:39:50.785Z,2.36
2018-09-26T00:42:20.070Z,2.34
2018-09-26T00:44:49.525Z,2.41
2018-09-26T00:47:18.993Z,2.39
2018-09-26T00:49:48.233Z,2.44
2018-09-26T00:52:18.198Z,2.54
2018-09-26T00:54:47.310Z,2.49
2018-09-26T00:57:17.014Z,2.45
2018-09-26T00:59:46.209Z,2.57
2018-09-26T01:02:15.801Z,2.64
2018-09-26T01:04:45.053Z,2.66
2018-09-26T01:07:14.332Z,2.54
2018-09-26T01:09:44.248Z,2.46
2018-09-26T01:12:14.136Z,2.43
2018-09-26T01:14:43.802Z,2.26
2018-09-26T01:17:13.143Z,2.26
2018-09-26T01:19:42.721Z,2.13
2018-09-26T01:22:12.849Z,2.12
2018-09-26T01:24:42.093Z,2.10
2018-09-26T01:27:11.382Z,2.00
2018-09-26T01:29:40.886Z,1.83
2018-09-26T01:32:10.068Z,1.84
2018-09-26T01:34:39.269Z,1.94
2018-09-26T01:37:08.477Z,2.07
2018-09-26T01:39:37.678Z,2.00
2018-09-26T01:42:06.950Z,1.78
2018-09-26T01:44:36.423Z,1.84
2018-09-26T01:47:06.374Z,1.86
2018-09-26T01:49:35.493Z,1.85
2018-09-26T01:52:04.613Z,1.76
2018-09-26T01:54:33.781Z,1.68
2018-09-26T01:57:02.986Z,1.65
2018-09-26T01:59:32.121Z,1.50
2018-09-26T02:02:01.646Z,1.46
2018-09-26T02:04:30.877Z,1.63
2018-09-26T02:07:00.677Z,1.72
2018-09-26T02:09:29.919Z,1.69
2018-09-26T02:11:59.878Z,1.58
2018-09-26T02:14:29.174Z,1.41
2018-09-26T02:16:58.289Z,1.24
2018-09-26T02:19:27.450Z,1.22
2018-09-26T02:21:56.632Z,1.37
2018-09-26T02:24:25.983Z,1.42
2018-09-26T02:26:55.130Z,1.34
2018-09-26T02:29:24.786Z,1.31
2018-09-26T02:31:53.915Z,1.28
2018-09-26T02:34:23.032Z,1.29
2018-09-26T02:36:52.283Z,1.32
2018-09-26T02:39:21.494Z,1.29
2018-09-26T02:41:50.758Z,1.34
2018-09-26T02:44:20.592Z,1.28
2018-09-26T02:46:50.015Z,1.15
2018-09-26T02:49:19.166Z,0.98
2018-09-26T02:51:48.291Z,0.84
2018-09-26T02:54:17.417Z,0.69
2018-09-26T02:56:46.535Z,0.58
2018-09-26T02:59:15.659Z,0.69
2018-09-26T03:01:44.854Z,0.64
2018-09-26T03:04:14.149Z,0.78
2018-09-26T03:06:43.946Z,0.86
2018-09-26T03:09:13.730Z,0.79
2018-09-26T03:11:42.987Z,0.66
2018-09-26T03:14:12.295Z,0.71
2018-09-26T03:16:41.474Z,0.87
2018-09-26T03:19:10.622Z,0.99
2018-09-26T03:21:39.799Z,0.94
2018-09-26T03:24:08.943Z,0.74
2018-09-26T03:26:38.114Z,0.59
2018-09-26T03:29:07.784Z,0.66
2018-09-26T03:31:37.090Z,0.66
2018-09-26T03:34:06.389Z,0.79
2018-09-26T03:36:37.249Z,0.86
2018-09-26T03:39:07.949Z,0.83
2018-09-26T03:41:37.064Z,1.03
2018-09-26T03:44:06.231Z,0.96
2018-09-26T03:46:35.365Z,0.77
2018-09-26T03:49:04.539Z,0.87
2018-09-26T03:51:37.823Z,0.96
2018-09-26T03:54:06.977Z,0.96
2018-09-26T03:56:36.113Z,1.19
2018-09-26T03:59:05.247Z,0.94
2018-09-26T04:01:34.420Z,0.85
2018-09-26T04:04:03.574Z,0.74
2018-09-26T04:06:33.134Z,0.79
2018-09-26T04:09:02.286Z,0.83
2018-09-26T04:11:31.411Z,0.80
2018-09-26T04:14:00.719Z,0.83
2018-09-26T04:16:29.817Z,0.75
2018-09-26T04:18:58.945Z,0.62
2018-09-26T04:21:28.760Z,0.65
2018-09-26T04:23:57.876Z,0.91
2018-09-26T04:26:27.183Z,0.78
2018-09-26T04:28:56.875Z,0.71
2018-09-26T04:31:26.744Z,0.75
2018-09-26T04:33:57.216Z,0.63
2018-09-26T04:36:26.297Z,0.65
2018-09-26T04:38:55.624Z,0.84
2018-09-26T04:41:24.555Z,0.77
2018-09-26T04:43:53.719Z,0.72
2018-09-26T04:46:22.925Z,0.70
2018-09-26T04:48:52.059Z,0.54
2018-09-26T04:51:21.155Z,0.42
2018-09-26T04:53:50.278Z,0.55
2018-09-26T04:56:22.034Z,0.60
2018-09-26T04:58:51.177Z,0.61
2018-09-26T05:01:20.277Z,0.80
2018-09-26T05:03:49.430Z,0.66
2018-09-26T05:06:18.527Z,0.60
2018-09-26T05:08:48.028Z,0.58
2018-09-26T05:11:17.218Z,0.57
2018-09-26T05:13:46.498Z,0.52
2018-09-26T05:16:15.782Z,0.59
2018-09-26T05:18:45.323Z,0.73
2018-09-26T05:21:17.966Z,0.75
2018-09-26T05:23:47.728Z,0.77
2018-09-26T05:26:18.406Z,0.62
2018-09-26T05:28:47.990Z,0.78
2018-09-26T05:31:17.462Z,0.86
2018-09-26T05:33:47.339Z,0.85
2018-09-26T05:36:16.490Z,0.86
2018-09-26T05:38:45.833Z,1.01
2018-09-26T05:41:14.934Z,1.18
2018-09-26T05:43:44.066Z,1.38
2018-09-26T05:46:13.282Z,1.48
2018-09-26T05:48:42.486Z,1.61
2018-09-26T05:51:11.689Z,1.75
2018-09-26T05:53:40.811Z,1.85
2018-09-26T05:56:10.062Z,1.86
2018-09-26T05:58:39.202Z,1.83
2018-09-26T06:01:08.326Z,1.77
2018-09-26T06:03:37.468Z,1.79
2018-09-26T06:06:06.606Z,1.84
2018-09-26T06:08:35.732Z,2.07
2018-09-26T06:11:05.275Z,2.98
2018-09-26T06:13:34.394Z,3.94
2018-09-26T06:16:03.753Z,5.09
2018-09-26T06:18:33.643Z,5.95
2018-09-26T06:21:02.778Z,6.62
2018-09-26T06:23:31.887Z,7.10
2018-09-26T06:26:00.999Z,7.80
2018-09-26T06:28:30.139Z,8.64
2018-09-26T06:30:59.270Z,8.81
2018-09-26T06:33:28.498Z,9.22
2018-09-26T06:35:57.607Z,8.82
2018-09-26T06:38:26.715Z,8.78
2018-09-26T06:40:55.855Z,9.33
2018-09-26T06:43:24.969Z,9.41
2018-09-26T06:45:54.067Z,10.03
2018-09-26T06:48:23.260Z,10.37
2018-09-26T06:50:52.361Z,10.54
2018-09-26T06:53:21.459Z,10.71
2018-09-26T06:55:50.598Z,11.07
2018-09-26T06:58:20.719Z,10.71
2018-09-26T07:00:49.835Z,11.40
2018-09-26T07:03:18.991Z,12.22
2018-09-26T07:05:48.129Z,11.97
2018-09-26T07:08:20.717Z,11.83
2018-09-26T07:10:49.839Z,11.73
2018-09-26T07:13:18.921Z,12.68
2018-09-26T07:15:48.056Z,13.75
2018-09-26T07:18:17.154Z,14.87
2018-09-26T07:20:46.466Z,14.66
2018-09-26T07:23:15.830Z,15.22
2018-09-26T07:25:44.934Z,15.41
2018-09-26T07:28:14.022Z,15.39
2018-09-26T07:30:43.168Z,15.74
2018-09-26T07:33:12.310Z,16.05
2018-09-26T07:35:41.482Z,16.79
2018-09-26T07:38:10.739Z,16.43
2018-09-26T07:40:39.782Z,17.00
2018-09-26T07:43:08.897Z,17.74
2018-09-26T07:45:38.090Z,18.44
2018-09-26T07:48:07.338Z,19.15
2018-09-26T07:50:36.467Z,19.73
2018-09-26T07:53:05.583Z,19.58
2018-09-26T07:55:34.694Z,19.21
2018-09-26T07:58:03.876Z,19.84
2018-09-26T08:00:33.045Z,19.42
2018-09-26T08:03:02.515Z,20.21
2018-09-26T08:05:31.950Z,20.45
2018-09-26T08:08:01.182Z,19.72
2018-09-26T08:10:30.490Z,20.60
2018-09-26T08:12:59.643Z,21.54
2018-09-26T08:15:28.761Z,22.43
2018-09-26T08:17:58.125Z,22.42
2018-09-26T08:20:27.294Z,23.28
2018-09-26T08:22:56.401Z,22.70
2018-09-26T08:25:25.545Z,24.99
2018-09-26T08:27:54.677Z,26.56
2018-09-26T08:30:24.037Z,26.04
2018-09-26T08:32:53.182Z,26.54
2018-09-26T08:35:22.737Z,23.99
2018-09-26T08:37:51.917Z,21.90
2018-09-26T08:40:21.030Z,21.77
2018-09-26T08:42:50.176Z,22.27
2018-09-26T08:45:19.740Z,24.01
2018-09-26T08:47:48.871Z,21.28
2018-09-26T08:50:17.982Z,24.55
2018-09-26T08:52:47.125Z,25.07
2018-09-26T08:55:16.614Z,25.84
2018-09-26T08:57:45.757Z,24.99
2018-09-26T09:00:14.918Z,24.06
2018-09-26T09:02:44.041Z,26.60
2018-09-26T09:05:13.170Z,27.57
2018-09-26T09:07:42.282Z,28.86
2018-09-26T09:10:11.462Z,26.89
2018-09-26T09:12:40.590Z,26.54
2018-09-26T09:15:09.765Z,27.00
2018-09-26T09:17:38.965Z,24.61
2018-09-26T09:20:08.218Z,24.29
2018-09-26T09:22:37.582Z,26.91
2018-09-26T09:25:06.714Z,28.40
2018-09-26T09:27:35.887Z,27.59
2018-09-26T09:30:04.950Z,29.20
2018-09-26T09:32:40.703Z,29.99
2018-09-26T09:35:09.865Z,28.09
2018-09-26T09:37:38.969Z,29.03
2018-09-26T09:40:08.255Z,30.79
2018-09-26T09:42:37.398Z,27.90
2018-09-26T09:45:06.554Z,31.86
2018-09-26T09:47:36.056Z,33.45
2018-09-26T09:50:05.262Z,31.19
2018-09-26T09:52:34.334Z,31.60
2018-09-26T09:55:03.450Z,31.54
2018-09-26T09:57:32.594Z,28.87
2018-09-26T10:00:01.691Z,31.30
2018-09-26T10:02:31.554Z,27.89
2018-09-26T10:05:00.638Z,33.11
2018-09-26T10:07:29.805Z,30.04
2018-09-26T10:09:58.967Z,26.59
2018-09-26T10:12:28.093Z,28.42
2018-09-26T10:14:57.214Z,28.24
2018-09-26T10:17:26.380Z,31.07
2018-09-26T10:19:55.413Z,33.64
2018-09-26T10:22:24.775Z,37.50
2018-09-26T10:24:53.953Z,37.52
2018-09-26T10:27:23.558Z,37.44
2018-09-26T10:29:52.838Z,39.11
2018-09-26T10:32:22.071Z,34.88
2018-09-26T10:34:51.177Z,37.16
2018-09-26T10:37:20.341Z,36.19
2018-09-26T10:39:49.462Z,33.09
2018-09-26T10:42:18.570Z,36.77
2018-09-26T10:44:47.659Z,38.37
2018-09-26T10:47:16.796Z,37.27
2018-09-26T10:49:46.302Z,38.53
2018-09-26T10:52:15.454Z,36.13
2018-09-26T10:54:44.997Z,36.65
2018-09-26T10:57:14.151Z,37.40
2018-09-26T10:59:43.275Z,37.76
2018-09-26T11:02:12.430Z,40.77
2018-09-26T11:04:41.618Z,43.61
2018-09-26T11:07:10.768Z,43.36
2018-09-26T11:09:39.894Z,42.58
2018-09-26T11:12:08.990Z,40.23
2018-09-26T11:14:38.148Z,35.04
2018-09-26T11:17:07.302Z,31.18
2018-09-26T11:19:36.411Z,31.89
2018-09-26T11:22:05.773Z,35.25
2018-09-26T11:24:35.049Z,33.79
2018-09-26T11:27:04.574Z,32.50
2018-09-26T11:29:33.762Z,31.82
2018-09-26T11:32:02.971Z,31.23
2018-09-26T11:34:32.162Z,33.19
2018-09-26T11:37:01.386Z,34.03
2018-09-26T11:39:30.474Z,31.05
2018-09-26T11:42:00.238Z,31.35
2018-09-26T11:44:29.376Z,30.46
2018-09-26T11:46:58.482Z,30.91
2018-09-26T11:49:27.605Z,31.33
2018-09-26T11:51:56.734Z,32.14
2018-09-26T11:54:25.851Z,30.52
2018-09-26T11:56:55.486Z,33.71
2018-09-26T11:59:24.682Z,32.07
2018-09-26T12:01:53.842Z,34.41
2018-09-26T12:04:22.950Z,34.41
2018-09-26T12:06:52.100Z,36.28
2018-09-26T12:09:21.196Z,35.78
2018-09-26T12:11:50.300Z,35.26
2018-09-26T12:14:19.522Z,36.56
2018-09-26T12:16:48.646Z,33.07
2018-09-26T12:19:17.778Z,35.89
2018-09-26T12:21:46.907Z,36.82
2018-09-26T12:24:16.256Z,35.78
2018-09-26T12:26:45.320Z,33.97
2018-09-26T12:29:14.642Z,34.80
2018-09-26T12:31:43.966Z,33.82
2018-09-26T12:34:13.503Z,32.54
2018-09-26T12:36:43.242Z,31.92
2018-09-26T12:39:12.534Z,30.21
2018-09-26T12:41:41.686Z,26.26
2018-09-26T12:44:11.070Z,25.24
2018-09-26T12:46:40.256Z,23.22
2018-09-26T12:49:09.409Z,21.55
2018-09-26T12:51:38.950Z,20.70
2018-09-26T12:54:08.323Z,19.71
2018-09-26T12:56:37.345Z,19.54
2018-09-26T12:59:06.510Z,19.42
2018-09-26T13:01:35.614Z,19.28
2018-09-26T13:04:04.762Z,19.09
2018-09-26T13:06:33.934Z,19.27
2018-09-26T13:09:03.239Z,19.69
2018-09-26T13:11:32.914Z,19.99
2018-09-26T13:14:03.733Z,20.45
2018-09-26T13:16:33.053Z,21.09
2018-09-26T13:19:02.732Z,22.43
2018-09-26T13:21:32.594Z,25.16
2018-09-26T13:24:02.454Z,28.29
2018-09-26T13:26:31.794Z,29.88
2018-09-26T13:29:01.096Z,29.28
2018-09-26T13:31:30.238Z,28.19
2018-09-26T13:33:59.666Z,27.38
2018-09-26T13:36:28.798Z,27.81
2018-09-26T13:38:57.955Z,29.26
2018-09-26T13:41:27.684Z,29.98
2018-09-26T13:43:57.025Z,29.40
2018-09-26T13:46:26.642Z,29.88
2018-09-26T13:48:55.842Z,29.07
2018-09-26T13:51:24.970Z,28.47
2018-09-26T13:53:54.893Z,28.02
2018-09-26T13:56:24.061Z,27.03
2018-09-26T13:58:53.150Z,25.99
2018-09-26T14:01:22.347Z,26.49
2018-09-26T14:03:51.438Z,25.38
2018-09-26T14:06:20.547Z,24.09
2018-09-26T14:08:49.664Z,22.85
2018-09-26T14:11:22.038Z,22.24
2018-09-26T14:13:52.473Z,22.42
2018-09-26T14:16:21.622Z,22.34
2018-09-26T14:18:50.774Z,22.05
2018-09-26T14:21:36.631Z,21.88
2018-09-26T14:24:06.433Z,21.93
2018-09-26T14:26:36.373Z,21.89
2018-09-26T14:29:05.657Z,22.08
2018-09-26T14:31:34.879Z,22.01
2018-09-26T14:34:04.156Z,21.70
2018-09-26T14:36:34.143Z,21.35
2018-09-26T14:39:05.189Z,21.74
2018-09-26T14:41:34.873Z,21.51
2018-09-26T14:44:04.665Z,21.95
2018-09-26T14:46:34.637Z,21.69
2018-09-26T14:49:04.439Z,21.19
2018-09-26T14:51:33.662Z,21.83
2018-09-26T14:54:03.550Z,21.75
2018-09-26T14:56:32.786Z,21.26
2018-09-26T14:59:02.005Z,20.81
2018-09-26T15:01:31.286Z,21.02
2018-09-26T15:04:00.653Z,20.80
2018-09-26T15:06:29.882Z,20.51
2018-09-26T15:08:59.786Z,20.34
2018-09-26T15:11:28.977Z,20.59
2018-09-26T15:13:58.227Z,20.97
2018-09-26T15:16:27.493Z,20.77
2018-09-26T15:18:56.729Z,20.64
2018-09-26T15:21:26.000Z,20.42
2018-09-26T15:23:55.209Z,20.16
2018-09-26T15:26:24.454Z,20.13
2018-09-26T15:28:54.087Z,19.97
2018-09-26T15:31:24.115Z,20.00
2018-09-26T15:33:53.394Z,19.84
2018-09-26T15:36:22.751Z,19.97
2018-09-26T15:38:51.926Z,19.60
2018-09-26T15:41:21.205Z,19.54
2018-09-26T15:43:50.710Z,19.67
2018-09-26T15:46:20.645Z,19.32
2018-09-26T15:48:49.869Z,19.33
2018-09-26T15:51:19.167Z,19.29
2018-09-26T15:53:48.419Z,19.27
2018-09-26T15:56:18.159Z,19.24
2018-09-26T15:58:47.338Z,19.22
2018-09-26T16:01:18.408Z,18.97
2018-09-26T16:04:04.027Z,18.95
2018-09-26T16:06:33.601Z,18.59
2018-09-26T16:09:02.959Z,18.50
2018-09-26T16:11:31.778Z,18.34
2018-09-26T16:14:01.819Z,18.26
2018-09-26T16:16:31.066Z,18.03
2018-09-26T16:19:00.242Z,17.89
2018-09-26T16:21:29.414Z,17.65
2018-09-26T16:23:59.682Z,17.44
2018-09-26T16:26:29.669Z,17.31
2018-09-26T16:28:59.532Z,17.17
2018-09-26T16:31:29.413Z,17.10
2018-09-26T16:33:59.405Z,17.00
2018-09-26T16:36:29.221Z,16.81
2018-09-26T16:38:58.687Z,16.86
2018-09-26T16:41:28.223Z,16.81
2018-09-26T16:43:58.418Z,16.70
2018-09-26T16:46:27.661Z,16.46
2018-09-26T16:48:57.998Z,16.24
2018-09-26T16:51:27.882Z,16.03
2018-09-26T16:53:57.798Z,15.84
2018-09-26T16:56:27.678Z,15.64
2018-09-26T16:58:56.948Z,15.59
2018-09-26T17:01:26.179Z,15.54
2018-09-26T17:03:55.395Z,15.29
2018-09-26T17:06:24.554Z,15.13
2018-09-26T17:08:54.697Z,14.92
2018-09-26T17:11:23.850Z,14.71
2018-09-26T17:13:52.975Z,14.53
2018-09-26T17:16:22.182Z,14.35
2018-09-26T17:18:51.243Z,14.48
2018-09-26T17:21:20.629Z,14.42
2018-09-26T17:23:49.769Z,14.37
2018-09-26T17:26:18.969Z,14.22
2018-09-26T17:28:49.256Z,14.12
2018-09-26T17:31:18.269Z,13.84
2018-09-26T17:33:47.654Z,13.84
2018-09-26T17:36:17.305Z,13.75
2018-09-26T17:38:46.657Z,13.61
2018-09-26T17:41:15.937Z,13.62
2018-09-26T17:43:45.134Z,13.70
2018-09-26T17:46:14.316Z,13.64
2018-09-26T17:48:43.434Z,13.74
2018-09-26T17:51:12.551Z,13.82
2018-09-26T17:53:43.015Z,13.61
2018-09-26T17:56:12.099Z,13.42
2018-09-26T17:58:41.246Z,13.24
2018-09-26T18:01:10.375Z,13.33
2018-09-26T18:03:39.482Z,13.33
2018-09-26T18:06:09.231Z,13.18
2018-09-26T18:08:38.452Z,13.01
2018-09-26T18:11:07.834Z,12.87
2018-09-26T18:13:37.190Z,12.61
2018-09-26T18:16:06.918Z,12.48
2018-09-26T18:18:36.023Z,12.41
2018-09-26T18:21:05.162Z,12.53
2018-09-26T18:23:34.313Z,12.38
2018-09-26T18:26:03.455Z,12.22
2018-09-26T18:28:32.589Z,12.25
2018-09-26T18:31:01.759Z,12.28
2018-09-26T18:33:30.964Z,12.26
2018-09-26T18:36:00.055Z,12.39
2018-09-26T18:38:29.197Z,12.33
2018-09-26T18:40:58.342Z,12.03
2018-09-26T18:43:27.472Z,12.12
2018-09-26T18:45:56.393Z,11.84
2018-09-26T18:48:25.532Z,11.58
2018-09-26T18:50:54.661Z,11.43
2018-09-26T18:53:23.866Z,11.30
2018-09-26T18:55:52.917Z,11.30
2018-09-26T18:58:22.037Z,11.10
2018-09-26T19:00:51.167Z,10.87
2018-09-26T19:03:22.634Z,10.66
2018-09-26T19:05:51.743Z,10.47
2018-09-26T19:08:20.701Z,10.43
2018-09-26T19:10:49.856Z,10.31
2018-09-26T19:13:18.975Z,10.39
2018-09-26T19:15:48.133Z,10.14
2018-09-26T19:18:17.249Z,10.03
2018-09-26T19:20:47.083Z,9.92
2018-09-26T19:23:16.277Z,9.93
2018-09-26T19:25:45.388Z,9.70
2018-09-26T19:28:14.505Z,9.59
2018-09-26T19:30:43.719Z,9.41
2018-09-26T19:33:13.037Z,9.35
2018-09-26T19:35:42.327Z,9.41
2018-09-26T19:38:11.478Z,9.58
2018-09-26T19:40:40.566Z,9.57
2018-09-26T19:43:09.753Z,9.45
2018-09-26T19:45:39.045Z,9.28
2018-09-26T19:48:08.212Z,9.25
2018-09-26T19:50:38.454Z,9.11
2018-09-26T19:53:07.609Z,9.00
2018-09-26T19:55:36.735Z,9.03
2018-09-26T19:58:05.970Z,8.83
2018-09-26T20:00:35.116Z,8.61
2018-09-26T20:03:04.231Z,8.41
2018-09-26T20:05:34.930Z,8.44
2018-09-26T20:08:04.895Z,8.50
2018-09-26T20:10:33.865Z,8.61
2018-09-26T20:13:03.170Z,8.67
2018-09-26T20:15:32.271Z,8.65
2018-09-26T20:18:01.477Z,8.63
2018-09-26T20:20:30.658Z,8.61
2018-09-26T20:22:59.879Z,8.51
2018-09-26T20:25:28.946Z,8.26
2018-09-26T20:27:58.091Z,8.05
2018-09-26T20:30:28.547Z,8.10
2018-09-26T20:32:57.721Z,8.03
2018-09-26T20:35:26.898Z,7.82
2018-09-26T20:37:55.971Z,7.83
2018-09-26T20:40:25.752Z,7.87
2018-09-26T20:42:55.146Z,7.96
2018-09-26T20:45:24.804Z,8.32
2018-09-26T20:47:53.950Z,8.58
2018-09-26T20:50:23.534Z,8.57
2018-09-26T20:52:53.255Z,8.35
2018-09-26T20:55:22.803Z,8.27
2018-09-26T20:57:52.698Z,8.18
2018-09-26T21:00:21.818Z,8.06
2018-09-26T21:02:50.930Z,7.77
2018-09-26T21:05:20.065Z,7.70
2018-09-26T21:07:49.226Z,7.74
2018-09-26T21:10:18.422Z,7.60
2018-09-26T21:12:47.757Z,7.43
2018-09-26T21:15:16.873Z,7.53
2018-09-26T21:17:46.303Z,7.57
2018-09-26T21:20:15.451Z,7.43
2018-09-26T21:22:44.801Z,7.29
2018-09-26T21:25:13.993Z,7.27
2018-09-26T21:27:43.163Z,7.08
2018-09-26T21:30:12.290Z,7.20
2018-09-26T21:32:41.587Z,7.41
2018-09-26T21:35:10.797Z,7.36
2018-09-26T21:37:40.008Z,7.33
2018-09-26T21:40:09.166Z,7.32
2018-09-26T21:42:38.811Z,7.21
2018-09-26T21:45:09.314Z,7.18
2018-09-26T21:47:38.551Z,6.94
2018-09-26T21:50:07.779Z,6.88
2018-09-26T21:52:36.949Z,6.88
2018-09-26T21:55:06.760Z,6.88
2018-09-26T21:57:36.333Z,6.87
2018-09-26T22:00:07.137Z,7.00
2018-09-26T22:02:36.506Z,7.03
2018-09-26T22:05:05.662Z,7.04
2018-09-26T22:07:34.850Z,6.85
2018-09-26T22:10:04.694Z,6.70
2018-09-26T22:12:33.863Z,6.92
2018-09-26T22:15:03.063Z,6.94
2018-09-26T22:17:32.179Z,6.76
2018-09-26T22:20:01.306Z,6.68
2018-09-26T22:22:31.145Z,6.60
2018-09-26T22:25:00.280Z,6.63
2018-09-26T22:27:29.402Z,6.70
2018-09-26T22:29:58.530Z,6.76
2018-09-26T22:32:27.677Z,6.77
2018-09-26T22:34:56.978Z,6.88
2018-09-26T22:37:26.270Z,6.91
2018-09-26T22:39:55.626Z,6.90
2018-09-26T22:42:26.390Z,6.94
2018-09-26T22:44:55.542Z,7.13
2018-09-26T22:47:29.446Z,6.94
2018-09-26T22:49:58.665Z,6.74
2018-09-26T22:52:27.755Z,6.88
2018-09-26T22:54:58.450Z,6.98
2018-09-26T22:57:27.557Z,7.06
2018-09-26T22:59:57.974Z,7.00
2018-09-26T23:02:27.077Z,7.05
2018-09-26T23:04:55.917Z,7.22
2018-09-26T23:07:25.426Z,7.43
2018-09-26T23:09:54.582Z,7.58
2018-09-26T23:12:23.742Z,7.71
2018-09-26T23:14:52.855Z,7.54
2018-09-26T23:17:22.018Z,7.30
2018-09-26T23:19:51.145Z,7.51
2018-09-26T23:22:20.310Z,7.38
2018-09-26T23:24:49.490Z,7.15
2018-09-26T23:27:18.622Z,6.79
2018-09-26T23:29:47.777Z,6.86
2018-09-26T23:32:17.126Z,6.59
2018-09-26T23:34:46.338Z,6.44
2018-09-26T23:37:15.490Z,6.58
2018-09-26T23:39:44.624Z,6.59
2018-09-26T23:42:13.933Z,6.48
2018-09-26T23:44:43.668Z,6.60
2018-09-26T23:47:12.824Z,6.72
2018-09-26T23:49:42.002Z,6.69
2018-09-26T23:52:11.162Z,6.93
2018-09-26T23:54:40.296Z,7.08
2018-09-26T23:57:09.478Z,7.08
2018-09-26T23:59:38.591Z,7.01
